Time;durP1;ratioP1;P1;durP2;ratioP2;P2;SDS_P1;SDS_P2;PMS_P1;PMS_P2;Temp;Humidity;BMP_temperature;BMP_pressure;BME280_temperature;BME280_humidity;BME280_pressure;Samples;Min_cycle;Max_cycle;Signal;HPM_P1;HPM_P2
2022/08/07 00:00:46;;;;;;;0.32;0.20;;;12.10;99.90;;;;;;5070025;28;20033;-83
2022/08/07 00:03:12;;;;;;;0.55;0.30;;;12.10;99.90;;;;;;5039550;28;20040;-85
2022/08/07 00:05:39;;;;;;;0.28;0.28;;;12.10;99.90;;;;;;5039635;28;20512;-83
2022/08/07 00:08:06;;;;;;;0.45;0.30;;;12.00;99.90;;;;;;5039945;28;20033;-85
2022/08/07 00:10:33;;;;;;;0.55;0.28;;;12.00;99.90;;;;;;5105116;28;20515;-85
2022/08/07 00:13:02;;;;;;;0.93;0.50;;;12.00;99.90;;;;;;5081041;28;20040;-85
2022/08/07 00:15:31;;;;;;;0.30;0.22;;;12.00;99.90;;;;;;5068801;28;20052;-85
2022/08/07 00:17:57;;;;;;;0.55;0.32;;;12.00;99.90;;;;;;5051941;28;20482;-83
2022/08/07 00:20:24;;;;;;;0.82;0.30;;;11.90;99.90;;;;;;5040841;28;20047;-85
2022/08/07 00:22:51;;;;;;;0.25;0.22;;;11.90;99.90;;;;;;5040472;28;20045;-83
2022/08/07 00:25:18;;;;;;;0.35;0.30;;;11.90;99.90;;;;;;5071809;28;20149;-85
2022/08/07 00:27:44;;;;;;;0.52;0.40;;;11.90;99.90;;;;;;5059757;28;20048;-83
2022/08/07 00:30:12;;;;;;;0.30;0.30;;;11.90;99.90;;;;;;5043320;28;20508;-83
2022/08/07 00:32:38;;;;;;;0.47;0.30;;;11.90;99.90;;;;;;5055005;28;20036;-85
2022/08/07 00:35:05;;;;;;;0.30;0.30;;;11.90;99.90;;;;;;5063390;28;20186;-83
2022/08/07 00:37:32;;;;;;;0.60;0.30;;;11.80;99.90;;;;;;5079491;28;20401;-85
2022/08/07 00:39:59;;;;;;;0.45;0.40;;;11.90;99.90;;;;;;5063471;28;20039;-85
2022/08/07 00:42:25;;;;;;;0.82;0.40;;;11.80;99.90;;;;;;5056497;28;20408;-85
2022/08/07 00:44:52;;;;;;;0.30;0.30;;;11.80;99.90;;;;;;5076037;28;20076;-83
2022/08/07 00:47:19;;;;;;;0.22;0.22;;;11.80;99.90;;;;;;5059164;28;20122;-85
2022/08/07 00:49:46;;;;;;;1.23;0.38;;;11.80;99.90;;;;;;5059432;28;20052;-83
2022/08/07 00:52:12;;;;;;;0.20;0.20;;;11.80;99.90;;;;;;5042872;28;20416;-83
2022/08/07 00:54:39;;;;;;;0.25;0.25;;;11.80;99.90;;;;;;5059283;28;20578;-84
2022/08/07 00:57:07;;;;;;;0.28;0.22;;;11.90;99.90;;;;;;5042604;28;20098;-85
2022/08/07 00:59:36;;;;;;;0.30;0.20;;;11.70;99.90;;;;;;5075733;28;20048;-85
2022/08/07 01:02:05;;;;;;;0.20;0.20;;;11.70;99.90;;;;;;5059174;28;20083;-85
2022/08/07 01:04:32;;;;;;;0.28;0.20;;;11.70;99.90;;;;;;5092609;28;20028;-85
2022/08/07 01:07:00;;;;;;;0.10;0.10;;;11.70;99.90;;;;;;5078870;28;20572;-84
2022/08/07 01:09:27;;;;;;;0.40;0.30;;;11.70;99.90;;;;;;5079171;28;20496;-85
2022/08/07 01:11:54;;;;;;;0.52;0.30;;;11.70;99.90;;;;;;5112286;28;20104;-83
2022/08/07 01:14:23;;;;;;;0.38;0.20;;;11.60;99.90;;;;;;5052832;28;20094;-83
2022/08/07 01:16:52;;;;;;;0.30;0.28;;;11.60;99.90;;;;;;5059132;28;20052;-83
2022/08/07 01:19:20;;;;;;;0.32;0.25;;;11.60;99.90;;;;;;5074959;28;20088;-83
2022/08/07 01:21:49;;;;;;;0.85;0.30;;;11.60;99.90;;;;;;5058827;28;20033;-85
2022/08/07 01:24:18;;;;;;;0.25;0.20;;;11.60;99.90;;;;;;5071923;28;20037;-86
2022/08/07 01:26:45;;;;;;;0.20;0.20;;;11.60;99.90;;;;;;5071536;28;20047;-86
2022/08/07 01:29:13;;;;;;;0.10;0.10;;;11.50;99.90;;;;;;5079018;28;20074;-83
2022/08/07 01:31:40;;;;;;;0.20;0.20;;;11.50;99.90;;;;;;5062108;28;20043;-83
2022/08/07 01:34:07;;;;;;;0.10;0.10;;;11.50;99.90;;;;;;5076619;28;20044;-84
2022/08/07 01:36:34;;;;;;;0.20;0.20;;;11.50;99.90;;;;;;5041795;28;20036;-85
2022/08/07 01:39:01;;;;;;;0.20;0.20;;;11.50;99.90;;;;;;5041433;28;20086;-83
2022/08/07 01:41:27;;;;;;;0.10;0.10;;;11.40;99.90;;;;;;5041512;28;20481;-83
2022/08/07 01:43:54;;;;;;;0.20;0.20;;;11.40;99.90;;;;;;5041838;28;20052;-83
2022/08/07 01:46:21;;;;;;;0.45;0.35;;;11.40;99.90;;;;;;5041707;28;20041;-83
2022/08/07 01:48:48;;;;;;;0.52;0.40;;;11.40;99.90;;;;;;5058003;28;20040;-85
2022/08/07 01:51:20;;;;;;;0.50;0.50;;;11.30;99.90;;;;;;5074783;28;20087;-85
2022/08/07 01:53:52;;;;;;;0.20;0.20;;;11.30;99.90;;;;;;5089919;28;20089;-83
2022/08/07 01:56:26;;;;;;;0.17;0.17;;;11.30;99.90;;;;;;5094625;28;20040;-85
2022/08/07 01:59:01;;;;;;;0.22;0.22;;;11.30;99.90;;;;;;5094894;28;20036;-83
2022/08/07 02:01:35;;;;;;;0.65;0.50;;;11.30;99.90;;;;;;5092369;28;20560;-84
2022/08/07 02:04:16;;;;;;;0.20;0.20;;;11.30;99.90;;;;;;5094430;28;20043;-84
2022/08/07 02:06:44;;;;;;;0.30;0.20;;;11.20;99.90;;;;;;5094696;28;20040;-86
2022/08/07 02:09:16;;;;;;;0.10;0.10;;;11.20;99.90;;;;;;5078624;28;20474;-84
2022/08/07 02:11:45;;;;;;;0.30;0.30;;;11.20;99.90;;;;;;5094821;28;20040;-85
2022/08/07 02:14:14;;;;;;;0.38;0.20;;;11.20;99.90;;;;;;5071310;28;20110;-85
2022/08/07 02:16:44;;;;;;;0.22;0.22;;;11.20;99.90;;;;;;5054159;28;20497;-86
2022/08/07 02:19:13;;;;;;;0.30;0.28;;;11.10;99.90;;;;;;5054954;28;20409;-85
2022/08/07 02:21:40;;;;;;;0.40;0.30;;;11.10;99.90;;;;;;5037809;28;20123;-85
2022/08/07 02:24:09;;;;;;;0.43;0.38;;;11.00;99.90;;;;;;5086202;28;20581;-86
2022/08/07 02:26:37;;;;;;;0.20;0.20;;;11.00;99.90;;;;;;5061282;28;20040;-86
2022/08/07 02:29:06;;;;;;;0.10;0.10;;;11.00;99.90;;;;;;5094141;28;20097;-86
2022/08/07 02:31:34;;;;;;;0.63;0.32;;;11.00;99.90;;;;;;5077599;28;20040;-86
2022/08/07 02:34:04;;;;;;;0.28;0.25;;;11.00;99.90;;;;;;5060518;28;20051;-84
2022/08/07 02:36:32;;;;;;;0.30;0.30;;;11.00;99.90;;;;;;5094133;28;20492;-85
2022/08/07 02:39:01;;;;;;;0.30;0.30;;;11.00;99.90;;;;;;5077915;28;20078;-84
2022/08/07 02:41:28;;;;;;;0.38;0.38;;;11.00;99.90;;;;;;5094177;28;20043;-85
2022/08/07 02:43:58;;;;;;;0.28;0.25;;;11.00;99.90;;;;;;5061646;28;20052;-86
2022/08/07 02:46:27;;;;;;;0.45;0.30;;;11.00;99.90;;;;;;5057007;28;20044;-83
2022/08/07 02:48:53;;;;;;;0.65;0.30;;;11.00;99.90;;;;;;5074129;28;20127;-85
2022/08/07 02:51:23;;;;;;;0.20;0.20;;;11.00;99.90;;;;;;5040983;28;20471;-85
2022/08/07 02:53:53;;;;;;;0.35;0.30;;;11.00;99.90;;;;;;5086395;28;20060;-84
2022/08/07 02:56:21;;;;;;;0.20;0.20;;;11.00;99.90;;;;;;5093174;28;20040;-83
2022/08/07 02:58:53;;;;;;;0.40;0.20;;;11.00;99.90;;;;;;5093410;28;20121;-84
2022/08/07 03:01:21;;;;;;;0.47;0.30;;;11.00;99.90;;;;;;5077124;28;20051;-86
2022/08/07 03:03:49;;;;;;;0.30;0.30;;;11.00;99.90;;;;;;5081925;28;20033;-85
2022/08/07 03:06:19;;;;;;;0.47;0.32;;;11.00;99.90;;;;;;5053893;28;20771;-83
2022/08/07 03:08:46;;;;;;;0.13;0.13;;;10.90;99.90;;;;;;5036626;28;20421;-84
2022/08/07 03:11:14;;;;;;;0.22;0.13;;;10.90;99.90;;;;;;5036905;28;20045;-86
2022/08/07 03:13:42;;;;;;;0.45;0.25;;;10.90;99.90;;;;;;5024453;28;20052;-86
2022/08/07 03:16:09;;;;;;;0.43;0.40;;;10.90;99.90;;;;;;5056405;28;20046;-83
2022/08/07 03:18:37;;;;;;;0.20;0.20;;;10.90;99.90;;;;;;5072868;28;20047;-85
2022/08/07 03:21:05;;;;;;;0.20;0.20;;;10.90;99.90;;;;;;5040462;28;20036;-83
2022/08/07 03:23:34;;;;;;;0.77;0.30;;;10.90;99.90;;;;;;5056777;28;20523;-84
2022/08/07 03:26:02;;;;;;;0.45;0.30;;;10.80;99.90;;;;;;5070891;28;20036;-86
2022/08/07 03:28:30;;;;;;;0.70;0.50;;;10.80;99.90;;;;;;5076024;28;20044;-83
2022/08/07 03:33:48;;;;;;;0.10;0.10;;;10.80;99.90;;;;;;5095508;28;20051;-86
2022/08/07 03:36:17;;;;;;;0.38;0.30;;;10.80;99.90;;;;;;5077132;28;20040;-86
2022/08/07 03:38:46;;;;;;;0.57;0.30;;;10.80;99.90;;;;;;5092499;28;20043;-85
2022/08/07 03:41:14;;;;;;;1.13;0.40;;;10.80;99.90;;;;;;5076295;28;20451;-86
2022/08/07 03:43:41;;;;;;;2.10;0.57;;;10.80;99.90;;;;;;5092468;28;20134;-86
2022/08/07 03:46:08;;;;;;;0.20;0.20;;;10.70;99.90;;;;;;5085544;28;20127;-86
2022/08/07 03:48:36;;;;;;;0.73;0.30;;;10.80;99.90;;;;;;5040426;28;20121;-84
2022/08/07 03:51:03;;;;;;;0.25;0.25;;;10.70;99.90;;;;;;5055773;28;20041;-84
2022/08/07 03:53:30;;;;;;;0.30;0.30;;;10.70;99.90;;;;;;5039886;28;20091;-84
2022/08/07 03:55:59;;;;;;;0.10;0.10;;;10.70;99.90;;;;;;5056203;28;20040;-84
2022/08/07 03:58:27;;;;;;;0.43;0.22;;;10.70;99.90;;;;;;5073365;28;20782;-86
2022/08/07 04:00:56;;;;;;;0.28;0.28;;;10.70;99.90;;;;;;5055224;28;20040;-83
2022/08/07 04:03:23;;;;;;;0.10;0.10;;;10.60;99.90;;;;;;5057002;28;20094;-86
2022/08/07 04:05:50;;;;;;;1.65;0.45;;;10.60;99.90;;;;;;5073236;28;20037;-85
2022/08/07 04:08:17;;;;;;;0.40;0.40;;;10.60;99.90;;;;;;5071407;28;20043;-86
2022/08/07 04:10:46;;;;;;;0.15;0.15;;;10.70;99.90;;;;;;5076208;28;20381;-87
2022/08/07 04:13:14;;;;;;;0.63;0.40;;;10.60;99.90;;;;;;5060280;28;20123;-85
2022/08/07 04:15:42;;;;;;;0.25;0.25;;;10.60;99.90;;;;;;5093158;28;20040;-85
2022/08/07 04:18:12;;;;;;;0.52;0.50;;;10.60;99.90;;;;;;5063346;28;20502;-85
2022/08/07 04:20:39;;;;;;;0.20;0.20;;;10.60;99.90;;;;;;5072972;28;20455;-84
2022/08/07 04:23:06;;;;;;;0.35;0.30;;;10.60;99.90;;;;;;5073234;28;20074;-86
2022/08/07 04:25:37;;;;;;;0.30;0.30;;;10.70;99.90;;;;;;5089514;28;20472;-85
2022/08/07 04:28:05;;;;;;;0.10;0.10;;;10.70;99.90;;;;;;5056552;28;20044;-83
2022/08/07 04:30:33;;;;;;;0.17;0.17;;;10.70;99.90;;;;;;5072671;28;20182;-86
2022/08/07 04:33:08;;;;;;;0.80;0.47;;;10.70;99.90;;;;;;5040038;28;20045;-84
2022/08/07 04:35:38;;;;;;;0.38;0.38;;;10.80;99.90;;;;;;5072717;28;20047;-83
2022/08/07 04:38:06;;;;;;;0.73;0.20;;;10.80;99.90;;;;;;5073398;28;20045;-86
2022/08/07 04:40:34;;;;;;;0.30;0.30;;;10.80;99.90;;;;;;5072463;28;20040;-85
2022/08/07 04:43:01;;;;;;;0.25;0.25;;;10.80;99.90;;;;;;5072571;28;20036;-84
2022/08/07 04:45:45;;;;;;;0.47;0.20;;;10.90;99.90;;;;;;5056476;28;20052;-86
2022/08/07 04:48:29;;;;;;;0.15;0.15;;;10.90;99.90;;;;;;5072626;28;20050;-86
2022/08/07 04:51:03;;;;;;;0.20;0.20;;;10.90;99.90;;;;;;5072936;28;20041;-86
2022/08/07 04:53:43;;;;;;;0.20;0.13;;;10.90;99.90;;;;;;5072230;28;20048;-86
2022/08/07 04:56:48;;;;;;;0.75;0.45;;;11.00;99.90;;;;;;5070502;28;20137;-84
2022/08/07 04:59:34;;;;;;;0.35;0.20;;;11.10;99.90;;;;;;4990127;28;20043;-86
2022/08/07 05:02:06;;;;;;;;;;;11.10;99.90;;;;;;5067360;28;20045;-84
2022/08/07 05:04:41;;;;;;;0.82;0.25;;;11.10;99.90;;;;;;5052690;28;19916;-85
2022/08/07 05:07:34;;;;;;;1.42;0.35;;;11.20;99.90;;;;;;5067327;28;20051;-84
2022/08/07 05:10:12;;;;;;;0.30;0.22;;;11.30;99.90;;;;;;5091295;28;20052;-86
2022/08/07 05:12:46;;;;;;;0.55;0.47;;;11.30;99.90;;;;;;5093017;28;20036;-83
2022/08/07 05:15:18;;;;;;;0.57;0.30;;;11.40;99.90;;;;;;5113293;28;20127;-86
2022/08/07 05:17:48;;;;;;;0.47;0.40;;;11.40;99.90;;;;;;5096115;28;20036;-86
2022/08/07 05:20:23;;;;;;;0.57;0.40;;;11.40;99.90;;;;;;5112918;28;20044;-85
2022/08/07 05:22:53;;;;;;;0.20;0.20;;;11.50;99.90;;;;;;5095935;28;20088;-85
2022/08/07 05:25:22;;;;;;;1.02;0.57;;;11.50;99.90;;;;;;5096553;28;20051;-86
2022/08/07 05:27:49;;;;;;;0.55;0.40;;;11.60;99.90;;;;;;5079127;28;20047;-85
2022/08/07 05:30:17;;;;;;;0.20;0.20;;;11.70;99.90;;;;;;5079982;28;20044;-83
2022/08/07 05:32:46;;;;;;;2.40;0.50;;;11.70;99.90;;;;;;5063027;28;20409;-83
2022/08/07 05:35:14;;;;;;;0.30;0.30;;;11.70;99.90;;;;;;5079511;28;20031;-83
2022/08/07 05:37:42;;;;;;;0.73;0.45;;;11.90;99.90;;;;;;5079883;28;20036;-85
2022/08/07 05:40:09;;;;;;;0.28;0.20;;;11.90;99.90;;;;;;5062038;28;20042;-85
2022/08/07 05:42:37;;;;;;;0.28;0.25;;;12.00;99.90;;;;;;5062829;28;20032;-86
2022/08/07 05:45:04;;;;;;;0.55;0.40;;;12.10;99.90;;;;;;5062920;28;20573;-85
2022/08/07 05:47:32;;;;;;;0.30;0.30;;;12.10;99.90;;;;;;5078664;28;20790;-83
2022/08/07 05:50:00;;;;;;;0.32;0.30;;;12.20;99.90;;;;;;5095244;28;20040;-83
2022/08/07 05:52:27;;;;;;;0.77;0.38;;;12.30;99.90;;;;;;5095673;28;20075;-86
2022/08/07 05:54:54;;;;;;;0.60;0.22;;;12.30;99.90;;;;;;5048281;28;20510;-86
2022/08/07 05:57:23;;;;;;;0.95;0.50;;;12.40;99.90;;;;;;5043060;28;20044;-86
2022/08/07 05:59:51;;;;;;;0.43;0.30;;;12.50;99.90;;;;;;5074923;28;20032;-84
2022/08/07 06:02:19;;;;;;;0.95;0.52;;;12.60;99.90;;;;;;5042598;28;20058;-84
2022/08/07 06:04:52;;;;;;;0.82;0.47;;;12.70;99.90;;;;;;5075296;28;20048;-83
2022/08/07 06:07:19;;;;;;;0.35;0.30;;;12.70;99.90;;;;;;5075158;28;20090;-86
2022/08/07 06:09:46;;;;;;;0.40;0.30;;;12.80;99.90;;;;;;5075475;28;20107;-86
2022/08/07 06:12:14;;;;;;;0.35;0.30;;;12.10;99.90;;;;;;5074689;28;20125;-85
2022/08/07 06:14:42;;;;;;;0.40;0.20;;;13.00;99.90;;;;;;5058623;28;20036;-86
2022/08/07 06:17:11;;;;;;;0.95;0.50;;;13.10;99.90;;;;;;5058583;28;20040;-85
2022/08/07 06:19:39;;;;;;;0.70;0.43;;;13.20;99.90;;;;;;5052339;28;20032;-84
2022/08/07 06:22:07;;;;;;;0.10;0.10;;;13.30;99.90;;;;;;5094781;28;20040;-86
2022/08/07 06:24:35;;;;;;;0.47;0.32;;;13.50;99.90;;;;;;5078332;28;20040;-86
2022/08/07 06:27:03;;;;;;;0.43;0.30;;;13.60;99.90;;;;;;5078390;28;20070;-86
2022/08/07 06:29:29;;;;;;;0.65;0.30;;;13.70;99.90;;;;;;5095509;28;20051;-85
2022/08/07 06:31:56;;;;;;;0.50;0.20;;;13.80;99.90;;;;;;5055278;28;20485;-83
2022/08/07 06:34:27;;;;;;;0.55;0.45;;;13.90;99.90;;;;;;5058541;28;20066;-85
2022/08/07 06:36:54;;;;;;;0.45;0.38;;;13.90;99.90;;;;;;5074647;28;20047;-85
2022/08/07 06:39:20;;;;;;;0.60;0.30;;;14.00;99.90;;;;;;5042448;28;20036;-86
2022/08/07 06:42:17;;;;;;;1.08;0.47;;;14.10;99.90;;;;;;5041866;28;20151;-83
2022/08/07 06:44:49;;;;;;;0.28;0.28;;;14.10;99.90;;;;;;5084798;28;20108;-85
2022/08/07 06:47:16;;;;;;;0.40;0.30;;;14.30;99.90;;;;;;5093982;28;20051;-83
2022/08/07 06:49:44;;;;;;;0.40;0.22;;;14.40;99.90;;;;;;5077772;28;20515;-85
2022/08/07 06:52:13;;;;;;;0.82;0.50;;;14.50;99.90;;;;;;5098207;28;20043;-84
2022/08/07 06:54:40;;;;;;;0.88;0.50;;;14.60;99.90;;;;;;5078359;28;20101;-84
2022/08/07 06:57:08;;;;;;;0.28;0.22;;;14.70;99.90;;;;;;5066053;28;20041;-86
2022/08/07 06:59:39;;;;;;;0.47;0.38;;;14.80;99.90;;;;;;5074176;28;20552;-84
2022/08/07 07:02:14;;;;;;;0.70;0.50;;;14.90;99.90;;;;;;5093765;28;20071;-85
2022/08/07 07:04:45;;;;;;;0.57;0.32;;;15.00;99.90;;;;;;5094265;28;20507;-84
2022/08/07 07:07:12;;;;;;;0.38;0.30;;;15.10;99.90;;;;;;5094004;28;20036;-85
2022/08/07 07:09:48;;;;;;;0.55;0.40;;;15.20;99.90;;;;;;5070586;28;20095;-84
2022/08/07 07:12:24;;;;;;;0.57;0.38;;;15.20;99.90;;;;;;5072727;28;20899;-84
2022/08/07 07:15:02;;;;;;;1.45;0.40;;;15.30;99.90;;;;;;5093998;28;20039;-85
2022/08/07 07:17:51;;;;;;;0.25;0.17;;;15.30;99.90;;;;;;5094074;28;20046;-84
2022/08/07 07:20:24;;;;;;;0.55;0.50;;;15.40;99.90;;;;;;5110193;28;20397;-84
2022/08/07 07:22:52;;;;;;;0.20;0.20;;;15.40;99.90;;;;;;5072162;28;20041;-84
2022/08/07 07:25:20;;;;;;;0.40;0.30;;;15.60;99.90;;;;;;5037436;28;20045;-84
2022/08/07 07:28:28;;;;;;;0.38;0.28;;;15.70;99.90;;;;;;5037870;28;20045;-85
2022/08/07 07:31:12;;;;;;;0.35;0.25;;;15.90;99.90;;;;;;5068309;28;20144;-86
2022/08/07 07:33:41;;;;;;;0.65;0.30;;;16.00;99.90;;;;;;5075838;28;20040;-85
2022/08/07 07:36:10;;;;;;;1.10;0.60;;;16.10;99.90;;;;;;5071232;28;20512;-85
2022/08/07 07:38:39;;;;;;;0.98;0.55;;;16.10;99.90;;;;;;5040505;28;20041;-84
2022/08/07 07:41:11;;;;;;;1.58;0.75;;;16.20;99.90;;;;;;5072577;28;20036;-83
2022/08/07 07:43:43;;;;;;;0.25;0.20;;;16.30;99.90;;;;;;5057368;28;20040;-85
2022/08/07 07:46:11;;;;;;;0.40;0.20;;;16.30;99.90;;;;;;5072591;28;20040;-83
2022/08/07 07:48:39;;;;;;;0.25;0.22;;;16.40;99.90;;;;;;5073371;28;20477;-84
2022/08/07 07:51:06;;;;;;;0.20;0.20;;;16.50;99.90;;;;;;5072896;28;20037;-85
2022/08/07 07:53:36;;;;;;;0.28;0.28;;;16.60;99.90;;;;;;5040580;28;20051;-84
2022/08/07 07:56:06;;;;;;;0.10;0.10;;;16.80;99.90;;;;;;5073287;28;20052;-85
2022/08/07 07:58:36;;;;;;;0.20;0.20;;;16.90;99.90;;;;;;5040345;28;20044;-85
2022/08/07 08:01:05;;;;;;;0.45;0.20;;;17.10;99.90;;;;;;5073458;28;20032;-85
2022/08/07 08:03:34;;;;;;;0.30;0.30;;;17.30;99.90;;;;;;5073348;28;20052;-85
2022/08/07 08:06:01;;;;;;;0.55;0.32;;;17.40;99.90;;;;;;5057198;28;20032;-84
2022/08/07 08:08:31;;;;;;;0.52;0.32;;;17.50;99.90;;;;;;5056180;28;20040;-85
2022/08/07 08:11:06;;;;;;;0.28;0.13;;;17.60;99.90;;;;;;5072962;28;20477;-84
2022/08/07 08:13:40;;;;;;;0.30;0.25;;;17.60;99.90;;;;;;5057071;28;20051;-85
2022/08/07 08:16:08;;;;;;;0.40;0.25;;;17.70;99.90;;;;;;5072541;28;20059;-85
2022/08/07 08:18:36;;;;;;;0.45;0.30;;;17.70;99.90;;;;;;5072499;28;20517;-85
2022/08/07 08:21:04;;;;;;;0.63;0.30;;;17.80;99.90;;;;;;5040048;28;20174;-85
2022/08/07 08:29:07;;;;;;;0.25;0.25;;;18.10;99.90;;;;;;5095756;28;20044;-85
2022/08/07 08:31:37;;;;;;;0.32;0.30;;;18.20;99.90;;;;;;5076152;28;20089;-84
2022/08/07 08:34:07;;;;;;;0.63;0.35;;;18.30;99.90;;;;;;5092410;28;20040;-84
2022/08/07 08:36:35;;;;;;;0.65;0.40;;;18.30;99.90;;;;;;5089633;28;20039;-84
2022/08/07 08:39:04;;;;;;;0.52;0.30;;;18.40;99.90;;;;;;5109260;28;20036;-85
2022/08/07 08:41:38;;;;;;;0.38;0.25;;;18.50;99.90;;;;;;5059684;28;20038;-85
2022/08/07 08:44:34;;;;;;;0.40;0.32;;;18.60;99.90;;;;;;5093146;28;20432;-84
2022/08/07 08:47:07;;;;;;;;;;;18.70;99.90;;;;;;5094024;28;20040;-84
2022/08/07 08:49:49;;;;;;;0.75;0.32;;;18.80;99.90;;;;;;5092984;28;19920;-84
2022/08/07 08:52:21;;;;;;;0.50;0.35;;;18.90;99.90;;;;;;5072933;28;20532;-84
2022/08/07 08:54:50;;;;;;;0.47;0.30;;;18.80;99.90;;;;;;5073139;28;20079;-85
2022/08/07 08:58:00;;;;;;;0.68;0.40;;;19.10;99.90;;;;;;5056158;28;20041;-83
2022/08/07 09:00:31;;;;;;;0.57;0.40;;;19.20;99.90;;;;;;5063258;28;20448;-84
2022/08/07 09:03:03;;;;;;;0.30;0.25;;;19.20;99.90;;;;;;5110976;28;20098;-84
2022/08/07 09:05:49;;;;;;;0.57;0.40;;;19.40;99.90;;;;;;5095748;28;20138;-84
2022/08/07 09:08:38;;;;;;;0.35;0.30;;;19.40;99.90;;;;;;5095805;28;20040;-84
2022/08/07 09:11:22;;;;;;;0.40;0.35;;;19.60;99.90;;;;;;5096357;28;20931;-84
2022/08/07 09:14:17;;;;;;;0.17;0.15;;;19.70;99.90;;;;;;5094449;28;20131;-85
2022/08/07 09:17:12;;;;;;;0.73;0.50;;;19.80;99.90;;;;;;5075883;28;20078;-85
2022/08/07 09:19:52;;;;;;;0.10;0.10;;;19.90;99.90;;;;;;5038540;28;20044;-84
2022/08/07 09:22:52;;;;;;;0.30;0.30;;;19.90;99.90;;;;;;5092392;28;20044;-85
2022/08/07 09:25:42;;;;;;;0.30;0.30;;;20.00;99.90;;;;;;5092433;28;20040;-85
2022/08/07 09:28:26;;;;;;;0.25;0.20;;;20.10;99.90;;;;;;5055658;28;20136;-85
2022/08/07 09:31:18;;;;;;;0.30;0.30;;;20.10;99.90;;;;;;5055718;28;20087;-84
2022/08/07 09:33:57;;;;;;;0.13;0.13;;;20.20;99.90;;;;;;5055445;28;20045;-85
2022/08/07 09:36:35;;;;;;;0.38;0.30;;;20.30;99.90;;;;;;5055530;28;20091;-84
2022/08/07 09:39:26;;;;;;;0.47;0.30;;;20.30;99.90;;;;;;5071364;28;20148;-85
2022/08/07 09:42:16;;;;;;;0.22;0.20;;;20.40;99.90;;;;;;5095382;28;20040;-84
2022/08/07 09:45:02;;;;;;;0.55;0.35;;;20.50;99.40;;;;;;5065881;28;20181;-84
2022/08/07 09:48:06;;;;;;;0.15;0.15;;;20.60;99.90;;;;;;5094958;28;20040;-85
2022/08/07 09:51:02;;;;;;;0.25;0.25;;;20.70;99.90;;;;;;5095306;28;20126;-85
2022/08/07 09:53:33;;;;;;;0.35;0.30;;;20.70;99.90;;;;;;5091685;28;20056;-84
2022/08/07 09:56:00;;;;;;;0.30;0.30;;;20.70;99.90;;;;;;5095228;28;20156;-85
2022/08/07 09:58:46;;;;;;;0.43;0.32;;;20.70;99.90;;;;;;5094423;28;20131;-84
2022/08/07 10:01:24;;;;;;;0.63;0.30;;;20.80;99.30;;;;;;5095289;28;20066;-84
2022/08/07 10:03:54;;;;;;;0.30;0.22;;;21.00;99.90;;;;;;5095319;28;20077;-85
2022/08/07 10:07:02;;;;;;;0.30;0.20;;;21.00;99.00;;;;;;5095205;28;20040;-84
2022/08/07 10:09:56;;;;;;;0.13;0.13;;;21.00;98.60;;;;;;4994942;28;20484;-84
2022/08/07 10:13:01;;;;;;;0.10;0.10;;;21.00;99.80;;;;;;4995165;28;20034;-85
2022/08/07 10:15:58;;;;;;;0.38;0.30;;;21.20;99.90;;;;;;5085451;28;20548;-84
2022/08/07 10:19:02;;;;;;;0.30;0.30;;;21.40;98.70;;;;;;5073481;28;20497;-84
2022/08/07 10:21:47;;;;;;;0.22;0.20;;;21.70;98.80;;;;;;5054213;28;20060;-85
2022/08/07 10:24:44;;;;;;;0.20;0.20;;;21.80;97.10;;;;;;5054943;28;20056;-83
2022/08/07 10:27:36;;;;;;;0.20;0.20;;;21.90;97.60;;;;;;5054630;28;20518;-85
2022/08/07 10:30:23;;;;;;;0.30;0.30;;;22.00;96.80;;;;;;5075091;28;20048;-84
2022/08/07 10:33:09;;;;;;;0.22;0.17;;;22.10;96.70;;;;;;5094089;28;20127;-84
2022/08/07 10:35:59;;;;;;;0.40;0.28;;;22.10;95.90;;;;;;5094113;28;20047;-84
2022/08/07 10:38:29;;;;;;;0.50;0.25;;;22.10;97.70;;;;;;5094490;28;20105;-84
2022/08/07 10:41:25;;;;;;;0.38;0.17;;;22.20;98.80;;;;;;5094362;28;20550;-84
2022/08/07 10:44:21;;;;;;;0.50;0.20;;;22.30;97.40;;;;;;5054471;28;20056;-84
2022/08/07 10:47:29;;;;;;;0.20;0.15;;;22.20;96.40;;;;;;5049254;28;20799;-85
2022/08/07 10:50:05;;;;;;;0.40;0.30;;;22.10;95.80;;;;;;5054233;28;20482;-85
2022/08/07 10:52:45;;;;;;;0.30;0.28;;;22.10;95.80;;;;;;5053721;28;20045;-85
2022/08/07 10:55:54;;;;;;;0.15;0.15;;;22.20;96.00;;;;;;5054248;28;20045;-84
2022/08/07 10:58:46;;;;;;;0.22;0.20;;;22.40;96.70;;;;;;4971694;29;20150;-85
2022/08/07 11:01:23;;;;;;;0.22;0.20;;;22.50;95.60;;;;;;4971850;29;20089;-84
2022/08/07 11:04:13;;;;;;;0.43;0.25;;;22.50;95.30;;;;;;5061990;28;20095;-84
2022/08/07 11:06:51;;;;;;;0.10;0.10;;;22.50;94.70;;;;;;5053701;28;20490;-85
2022/08/07 11:09:23;;;;;;;0.20;0.20;;;22.50;96.80;;;;;;5074181;28;20050;-84
2022/08/07 11:12:01;;;;;;;1.00;0.40;;;22.50;95.60;;;;;;5072252;28;20075;-85
2022/08/07 11:14:45;;;;;;;0.75;0.40;;;22.50;94.70;;;;;;5073574;28;20072;-85
2022/08/07 11:17:29;;;;;;;0.32;0.30;;;22.50;94.70;;;;;;5073960;28;20127;-85
2022/08/07 11:20:14;;;;;;;0.28;0.20;;;22.30;94.50;;;;;;5071447;28;20425;-84
2022/08/07 11:22:54;;;;;;;;;;;22.00;95.30;;;;;;5070251;28;20041;-84
2022/08/07 11:25:35;;;;;;;0.80;0.40;;;22.10;95.60;;;;;;5070065;28;19940;-85
2022/08/07 11:28:25;;;;;;;0.20;0.20;;;22.20;96.00;;;;;;5053664;28;20051;-84
2022/08/07 11:31:10;;;;;;;0.20;0.20;;;22.50;95.70;;;;;;5053148;28;20037;-84
2022/08/07 11:33:50;;;;;;;0.10;0.10;;;22.60;93.40;;;;;;5085548;28;20408;-85
2022/08/07 11:36:34;;;;;;;0.52;0.35;;;22.60;94.10;;;;;;5069922;28;20041;-85
2022/08/07 11:39:16;;;;;;;0.20;0.20;;;22.80;94.80;;;;;;5069541;28;20120;-85
2022/08/07 11:42:17;;;;;;;0.25;0.25;;;22.90;93.70;;;;;;5053367;28;20063;-84
2022/08/07 11:45:04;;;;;;;0.30;0.25;;;23.00;93.30;;;;;;5085236;28;20032;-85
2022/08/07 11:47:49;;;;;;;0.20;0.20;;;23.00;93.00;;;;;;5043010;28;20134;-85
2022/08/07 11:50:36;;;;;;;0.55;0.30;;;23.10;91.90;;;;;;5093367;28;20040;-85
2022/08/07 11:53:15;;;;;;;0.20;0.15;;;23.10;93.10;;;;;;5089560;28;20103;-85
2022/08/07 11:55:59;;;;;;;0.25;0.25;;;23.10;93.30;;;;;;5089638;28;20045;-85
2022/08/07 11:58:53;;;;;;;0.22;0.20;;;23.30;93.20;;;;;;5069896;28;20043;-85
2022/08/07 12:01:26;;;;;;;0.45;0.25;;;23.30;92.40;;;;;;5069850;28;20048;-85
2022/08/07 12:04:30;;;;;;;0.82;0.40;;;23.20;91.90;;;;;;5069053;28;20041;-84
2022/08/07 12:07:24;;;;;;;0.47;0.30;;;23.40;91.10;;;;;;5069424;28;20047;-84
2022/08/07 12:10:18;;;;;;;0.60;0.40;;;23.30;91.10;;;;;;5069106;28;20041;-85
2022/08/07 12:13:07;;;;;;;0.20;0.20;;;23.30;92.70;;;;;;5085455;28;20041;-85
2022/08/07 12:15:49;;;;;;;0.47;0.30;;;23.40;91.60;;;;;;5069466;28;20131;-84
2022/08/07 12:18:36;;;;;;;0.32;0.20;;;23.50;93.30;;;;;;5069578;28;20071;-84
2022/08/07 12:21:28;;;;;;;0.20;0.20;;;23.30;90.10;;;;;;5069199;28;20048;-84
2022/08/07 12:24:16;;;;;;;0.52;0.30;;;23.40;90.20;;;;;;5073282;28;20517;-85
2022/08/07 12:26:53;;;;;;;0.30;0.20;;;23.40;89.80;;;;;;5072949;28;20043;-83
2022/08/07 12:29:34;;;;;;;0.20;0.20;;;23.40;89.20;;;;;;5073664;28;20041;-84
2022/08/07 12:32:03;;;;;;;0.28;0.20;;;23.40;91.20;;;;;;5072963;28;20076;-84
2022/08/07 12:34:37;;;;;;;0.40;0.30;;;23.40;91.30;;;;;;5077468;28;20037;-84
2022/08/07 12:37:06;;;;;;;0.45;0.32;;;23.50;90.30;;;;;;5079458;28;20827;-85
2022/08/07 12:39:35;;;;;;;0.25;0.25;;;23.40;90.70;;;;;;5073129;28;20554;-84
2022/08/07 12:42:05;;;;;;;0.65;0.40;;;23.60;90.30;;;;;;5056597;28;20037;-82
2022/08/07 12:44:34;;;;;;;0.50;0.40;;;23.70;89.50;;;;;;5072763;28;20055;-84
2022/08/07 12:47:04;;;;;;;0.35;0.30;;;23.80;89.10;;;;;;5088965;28;20123;-84
2022/08/07 12:50:02;;;;;;;0.10;0.10;;;23.90;88.60;;;;;;5072810;28;20051;-85
2022/08/07 12:52:55;;;;;;;0.50;0.30;;;24.00;89.70;;;;;;5075395;28;20045;-85
2022/08/07 12:55:51;;;;;;;0.20;0.17;;;24.10;89.40;;;;;;5076349;28;20575;-84
2022/08/07 12:58:20;;;;;;;0.20;0.20;;;24.20;88.50;;;;;;5076661;28;20127;-84
2022/08/07 13:01:08;;;;;;;0.25;0.20;;;24.10;88.20;;;;;;5044156;28;20036;-84
2022/08/07 13:03:53;;;;;;;0.20;0.20;;;23.90;90.30;;;;;;5076348;28;20089;-84
2022/08/07 13:06:35;;;;;;;0.25;0.20;;;24.00;86.30;;;;;;5092951;28;20577;-85
2022/08/07 13:09:20;;;;;;;0.40;0.30;;;24.10;90.40;;;;;;5075824;28;20036;-84
2022/08/07 13:11:53;;;;;;;0.10;0.10;;;24.20;90.40;;;;;;5092946;28;20037;-84
2022/08/07 13:14:51;;;;;;;0.28;0.28;;;24.20;89.70;;;;;;5072703;28;20049;-84
2022/08/07 13:17:40;;;;;;;0.77;0.43;;;24.40;89.10;;;;;;5056004;28;20073;-84
2022/08/07 13:20:17;;;;;;;0.20;0.20;;;24.20;86.50;;;;;;5055923;28;20041;-84
2022/08/07 13:22:50;;;;;;;0.38;0.30;;;24.30;90.00;;;;;;5056110;28;20040;-84
2022/08/07 13:25:38;;;;;;;0.20;0.20;;;24.20;84.90;;;;;;5079536;28;20040;-84
2022/08/07 13:28:11;;;;;;;0.20;0.20;;;24.10;86.40;;;;;;5095650;28;20500;-84
2022/08/07 13:30:42;;;;;;;0.10;0.10;;;24.10;89.00;;;;;;5095809;28;20044;-84
2022/08/07 13:33:22;;;;;;;0.28;0.20;;;24.20;90.00;;;;;;5094871;28;20105;-84
2022/08/07 13:35:55;;;;;;;0.68;0.32;;;24.10;85.80;;;;;;5095697;28;20039;-84